Time;durP1;ratioP1;P1;durP2;ratioP2;P2;SDS_P1;SDS_P2;PMS_P1;PMS_P2;Temp;Humidity;BMP_temperature;BMP_pressure;BME280_temperature;BME280_humidity;BME280_pressure;Samples;Min_cycle;Max_cycle;Signal;HPM_P1;HPM_P2
2024/01/29 00:00:57;;;;;;;;;;;;;;;18.49;61.99;100502.81;2091788;28;20578;-69
2024/01/29 00:02:00;;;;;;;;;;;;;;;18.50;62.03;100497.31;2089225;28;19932;-69
2024/01/29 00:03:01;;;;;;;;;;;;;;;18.47;62.41;100497.63;2089813;28;19936;-68
2024/01/29 00:04:03;;;;;;;;;;;;;;;18.48;62.43;100507.38;2088271;28;19963;-69
2024/01/29 00:05:04;;;;;;;;;;;;;;;18.46;62.54;100497.78;2089311;28;19956;-69
2024/01/29 00:06:06;;;;;;;;;;;;;;;18.47;62.11;100507.50;2089641;28;20292;-69
2024/01/29 00:07:07;;;;;;;;;;;;;;;18.44;62.38;100497.94;2076579;28;23320;-70
2024/01/29 00:08:08;;;;;;;;;;;;;;;18.46;62.12;100501.28;2088844;28;19928;-68
2024/01/29 00:09:09;;;;;;;;;;;;;;;18.45;62.26;100504.16;2085380;28;19967;-68
2024/01/29 00:10:11;;;;;;;;;;;;;;;18.44;62.37;100495.25;2085354;28;19932;-70
2024/01/29 00:11:12;;;;;;;;;;;;;;;18.43;62.46;100498.94;2086712;28;19929;-69
2024/01/29 00:12:13;;;;;;;;;;;;;;;18.44;62.29;100497.94;2088372;28;20699;-70
2024/01/29 00:13:14;;;;;;;;;;;;;;;18.42;62.14;100502.63;2087721;28;19982;-68
2024/01/29 00:14:15;;;;;;;;;;;;;;;18.42;62.29;100499.09;2087517;28;19948;-70
2024/01/29 00:15:17;;;;;;;;;;;;;;;18.41;62.08;100498.22;2090232;28;20463;-68
2024/01/29 00:16:18;;;;;;;;;;;;;;;18.39;62.02;100500.25;2087541;28;19932;-69
2024/01/29 00:17:20;;;;;;;;;;;;;;;18.41;62.13;100505.47;2089390;28;19947;-68
2024/01/29 00:18:22;;;;;;;;;;;;;;;18.40;61.91;100504.63;2087079;28;19932;-70
2024/01/29 00:19:23;;;;;;;;;;;;;;;18.36;62.38;100500.56;2086287;28;20404;-69
2024/01/29 00:20:25;;;;;;;;;;;;;;;18.39;62.21;100507.47;2086611;28;19947;-68
2024/01/29 00:21:26;;;;;;;;;;;;;;;18.38;62.03;100501.25;2090044;28;19978;-69
2024/01/29 00:22:28;;;;;;;;;;;;;;;18.38;62.38;100508.47;2079750;28;19936;-69
2024/01/29 00:23:28;;;;;;;;;;;;;;;18.36;62.36;100500.56;2085581;28;19932;-69
2024/01/29 00:24:30;;;;;;;;;;;;;;;18.36;62.01;100503.25;2079498;28;19931;-69
2024/01/29 00:25:31;;;;;;;;;;;;;;;18.35;62.39;100506.94;2086860;28;19971;-69
2024/01/29 00:26:33;;;;;;;;;;;;;;;18.35;62.36;100501.56;2088302;28;20464;-69
2024/01/29 00:27:34;;;;;;;;;;;;;;;18.33;62.27;100502.72;2086982;28;19928;-70
2024/01/29 00:28:35;;;;;;;;;;;;;;;18.33;62.27;100498.22;2090153;28;19925;-69
2024/01/29 00:29:37;;;;;;;;;;;;;;;18.32;62.34;100499.19;2088556;28;19933;-68
2024/01/29 00:30:38;;;;;;;;;;;;;;;18.32;62.26;100501.88;2087817;28;19939;-69
2024/01/29 00:31:39;;;;;;;;;;;;;;;18.30;62.13;100496.66;2087373;28;20192;-69
2024/01/29 00:32:42;;;;;;;;;;;;;;;18.30;62.25;100503.88;2089208;28;19971;-70
2024/01/29 00:33:46;;;;;;;;;;;;;;;18.29;62.30;100497.66;2088192;28;19936;-69
2024/01/29 00:34:47;;;;;;;;;;;;;;;18.27;62.37;100498.81;2089318;28;19996;-68
2024/01/29 00:35:49;;;;;;;;;;;;;;;18.27;62.23;100499.63;2090125;28;20465;-69
2024/01/29 00:36:49;;;;;;;;;;;;;;;18.26;62.18;100489.06;2088242;28;20555;-70
2024/01/29 00:37:51;;;;;;;;;;;;;;;18.25;62.31;100496.28;2086199;28;19925;-69
2024/01/29 00:38:52;;;;;;;;;;;;;;;18.23;62.46;100500.97;2087135;28;19986;-69
2024/01/29 00:39:54;;;;;;;;;;;;;;;18.20;62.41;100497.75;2089051;28;21466;-69
2024/01/29 00:40:54;;;;;;;;;;;;;;;18.21;62.33;100500.28;2086600;28;19990;-69
2024/01/29 00:41:56;;;;;;;;;;;;;;;18.23;62.46;100502.81;2075096;28;20615;-70
2024/01/29 00:42:57;;;;;;;;;;;;;;;18.19;62.47;100499.59;2078193;28;20003;-69
2024/01/29 00:43:58;;;;;;;;;;;;;;;18.20;62.50;100500.44;2084608;28;20928;-69
2024/01/29 00:44:59;;;;;;;;;;;;;;;18.16;62.55;100501.75;2088732;28;20007;-68
2024/01/29 00:46:01;;;;;;;;;;;;;;;18.17;62.34;100501.59;2090434;28;19936;-69
2024/01/29 00:47:02;;;;;;;;;;;;;;;18.17;62.38;100501.59;2089455;28;19960;-69
2024/01/29 00:48:05;;;;;;;;;;;;;;;18.07;62.71;100501.66;2090627;28;20019;-69
2024/01/29 00:49:07;;;;;;;;;;;;;;;18.11;62.47;100504.03;2078987;28;19933;-70
2024/01/29 00:50:09;;;;;;;;;;;;;;;18.07;62.60;100503.50;2085597;28;20652;-69
2024/01/29 00:51:11;;;;;;;;;;;;;;;18.08;62.49;100502.53;2090930;28;19940;-70
2024/01/29 00:52:11;;;;;;;;;;;;;;;18.09;62.45;100512.28;2086355;28;19972;-68
2024/01/29 00:53:12;;;;;;;;;;;;;;;18.05;62.80;100510.88;2088438;28;19928;-69
2024/01/29 00:54:14;;;;;;;;;;;;;;;18.04;62.72;100504.66;2088916;28;20615;-69
2024/01/29 00:55:14;;;;;;;;;;;;;;;18.03;62.57;100511.03;2089012;28;20348;-68
2024/01/29 00:56:16;;;;;;;;;;;;;;;18.03;62.86;100511.03;2089380;28;19935;-68
2024/01/29 00:57:17;;;;;;;;;;;;;;;18.00;62.77;100511.34;2088248;28;19963;-69
2024/01/29 00:58:19;;;;;;;;;;;;;;;17.99;62.79;100512.34;2087932;28;19955;-68
2024/01/29 00:59:20;;;;;;;;;;;;;;;17.98;62.92;100516.03;2070488;28;20016;-69
2024/01/29 01:00:22;;;;;;;;;;;;;;;17.98;63.00;100516.03;2081960;28;19924;-69
2024/01/29 01:01:23;;;;;;;;;;;;;;;17.96;62.77;100507.28;2090495;28;20280;-69
2024/01/29 01:02:25;;;;;;;;;;;;;;;17.95;62.96;100505.59;2086671;28;19971;-68
2024/01/29 01:03:27;;;;;;;;;;;;;;;17.93;62.77;100523.69;2091187;28;19967;-69
2024/01/29 01:04:29;;;;;;;;;;;;;;;17.94;62.83;100513.78;2090844;28;19935;-70
2024/01/29 01:05:29;;;;;;;;;;;;;;;17.94;62.86;100508.41;2087628;28;19963;-70
2024/01/29 01:06:31;;;;;;;;;;;;;;;17.91;62.96;100511.41;2089486;28;19939;-68
2024/01/29 01:07:32;;;;;;;;;;;;;;;17.91;62.70;100514.94;2088204;28;20516;-68
2024/01/29 01:08:33;;;;;;;;;;;;;;;17.92;62.92;100519.34;2089513;28;20008;-70
2024/01/29 01:09:34;;;;;;;;;;;;;;;17.90;62.62;100518.63;2087805;28;19956;-70
2024/01/29 01:10:36;;;;;;;;;;;;;;;17.91;62.87;100511.41;2087416;28;19928;-69
2024/01/29 01:11:40;;;;;;;;;;;;;;;17.88;63.04;100517.09;2088406;28;21352;-69
2024/01/29 01:12:40;;;;;;;;;;;;;;;17.84;62.83;100514.72;2087695;28;20006;-69
2024/01/29 01:13:42;;;;;;;;;;;;;;;17.90;62.77;100521.31;2088986;28;19973;-69
2024/01/29 01:14:43;;;;;;;;;;;;;;;17.89;62.97;100510.75;2090415;28;19935;-69
2024/01/29 01:15:45;;;;;;;;;;;;;;;17.90;62.80;100518.63;2086849;28;19928;-69
2024/01/29 01:16:45;;;;;;;;;;;;;;;17.91;62.37;100517.63;2083282;28;19948;-68
2024/01/29 01:17:46;;;;;;;;;;;;;;;17.91;62.53;100519.47;2086846;28;19974;-69
2024/01/29 01:18:50;;;;;;;;;;;;;;;17.93;62.62;100517.47;2089066;28;21579;-69
2024/01/29 01:19:51;;;;;;;;;;;;;;;17.87;62.79;100524.31;2087248;28;19986;-69
2024/01/29 01:20:53;;;;;;;;;;;;;;;17.88;62.81;100523.31;2086706;28;19935;-69
2024/01/29 01:21:53;;;;;;;;;;;;;;;17.88;62.72;100526.00;2089082;28;19960;-69
2024/01/29 01:22:55;;;;;;;;;;;;;;;17.87;62.60;100516.25;2087382;28;19933;-69
2024/01/29 01:23:56;;;;;;;;;;;;;;;17.85;62.82;100521.75;2090021;28;19973;-69
2024/01/29 01:24:58;;;;;;;;;;;;;;;17.89;62.73;100521.50;2080208;28;20497;-69
2024/01/29 01:25:58;;;;;;;;;;;;;;;17.94;62.58;100516.47;2080314;28;19966;-69
2024/01/29 01:27:00;;;;;;;;;;;;;;;17.92;62.42;100510.44;2085573;28;19932;-68
2024/01/29 01:28:01;;;;;;;;;;;;;;;17.89;62.53;100513.44;2086140;28;19964;-69
2024/01/29 01:29:04;;;;;;;;;;;;;;;17.89;62.37;100513.44;2086483;28;19924;-69
2024/01/29 01:30:06;;;;;;;;;;;;;;;17.90;62.36;100524.00;2088250;28;19928;-69
2024/01/29 01:31:08;;;;;;;;;;;;;;;17.92;62.27;100516.66;2087003;28;19925;-68
2024/01/29 01:32:08;;;;;;;;;;;;;;;17.92;62.40;100516.66;2088485;28;19932;-69
2024/01/29 01:33:10;;;;;;;;;;;;;;;17.92;62.45;100519.34;2085919;28;19925;-69
2024/01/29 01:34:12;;;;;;;;;;;;;;;17.93;62.20;100518.31;2087174;28;19967;-68
2024/01/29 01:35:14;;;;;;;;;;;;;;;17.92;62.43;100522.00;2088118;28;19949;-69
2024/01/29 01:36:15;;;;;;;;;;;;;;;17.92;62.28;100516.66;2088359;28;19963;-68
2024/01/29 01:37:17;;;;;;;;;;;;;;;17.92;62.12;100511.28;2086589;28;19944;-68
2024/01/29 01:38:17;;;;;;;;;;;;;;;17.91;62.27;100514.94;2089160;28;19983;-69
2024/01/29 01:39:18;;;;;;;;;;;;;;;17.92;61.96;100511.28;2088054;28;20387;-69
2024/01/29 01:40:20;;;;;;;;;;;;;;;17.90;62.13;100515.09;2088194;28;19974;-70
2024/01/29 01:41:21;;;;;;;;;;;;;;;17.91;62.35;100503.38;2090220;28;19979;-69
2024/01/29 01:42:22;;;;;;;;;;;;;;;17.88;62.14;100515.25;2088172;28;19935;-69
2024/01/29 01:43:23;;;;;;;;;;;;;;;17.90;62.08;100507.91;2087062;28;19976;-70
2024/01/29 01:44:25;;;;;;;;;;;;;;;17.91;62.22;100509.56;2088410;28;19929;-68
2024/01/29 01:45:28;;;;;;;;;;;;;;;17.91;62.11;100509.56;2085712;28;19974;-68
2024/01/29 01:46:30;;;;;;;;;;;;;;;17.90;62.17;100507.91;2081562;28;19936;-69
2024/01/29 01:47:30;;;;;;;;;;;;;;;17.91;61.89;100503.38;2084115;28;19959;-69
2024/01/29 01:48:32;;;;;;;;;;;;;;;17.89;62.23;100508.06;2088439;28;19935;-68
2024/01/29 01:49:35;;;;;;;;;;;;;;;17.88;62.16;100512.56;2087134;28;19928;-69
2024/01/29 01:50:36;;;;;;;;;;;;;;;17.90;62.15;100507.91;2089337;28;20048;-69
2024/01/29 01:51:37;;;;;;;;;;;;;;;17.89;62.22;100511.59;2090798;28;19960;-68
2024/01/29 01:52:41;;;;;;;;;;;;;;;17.90;61.88;100510.56;2089502;28;19924;-69
2024/01/29 01:53:41;;;;;;;;;;;;;;;17.88;62.13;100507.19;2080006;28;20031;-68
2024/01/29 01:54:43;;;;;;;;;;;;;;;17.89;61.95;100506.22;2085135;28;19925;-68
2024/01/29 01:55:44;;;;;;;;;;;;;;;17.88;61.80;100507.19;2088307;28;19964;-69
2024/01/29 01:56:46;;;;;;;;;;;;;;;17.87;62.12;100510.88;2089199;28;19935;-69
2024/01/29 01:57:46;;;;;;;;;;;;;;;17.86;61.96;100511.91;2086182;28;20023;-70
2024/01/29 01:58:47;;;;;;;;;;;;;;;17.85;62.06;100510.19;2086948;28;20619;-69
2024/01/29 01:59:49;;;;;;;;;;;;;;;17.86;61.97;100506.53;2090689;28;19979;-70
2024/01/29 02:00:50;;;;;;;;;;;;;;;17.84;61.85;100503.16;2086618;28;19929;-69
2024/01/29 02:01:52;;;;;;;;;;;;;;;17.82;62.15;100503.28;2086200;28;19955;-69
2024/01/29 02:02:54;;;;;;;;;;;;;;;17.81;62.03;100506.13;2089658;28;20384;-69
2024/01/29 02:03:56;;;;;;;;;;;;;;;17.82;62.15;100500.59;2088431;28;19932;-68
2024/01/29 02:04:58;;;;;;;;;;;;;;;17.82;61.92;100502.44;2088838;28;20577;-70
2024/01/29 02:06:00;;;;;;;;;;;;;;;17.83;62.16;100504.16;2087181;28;20399;-69
2024/01/29 02:07:00;;;;;;;;;;;;;;;17.80;62.15;100509.81;2087769;28;20403;-69
2024/01/29 02:08:03;;;;;;;;;;;;;;;17.77;62.01;100508.22;2087336;28;19939;-69
2024/01/29 02:09:05;;;;;;;;;;;;;;;17.77;62.14;100508.22;2088053;28;19936;-69
2024/01/29 02:10:07;;;;;;;;;;;;;;;17.76;62.11;100501.19;2085161;28;20700;-69
2024/01/29 02:11:09;;;;;;;;;;;;;;;17.77;61.91;100507.41;2087104;28;19998;-69
2024/01/29 02:12:10;;;;;;;;;;;;;;;17.77;61.96;100507.41;2085673;28;20400;-69
2024/01/29 02:13:11;;;;;;;;;;;;;;;17.76;62.13;100500.34;2088602;28;19932;-69
2024/01/29 02:14:12;;;;;;;;;;;;;;;17.76;61.83;100500.34;2089779;28;19928;-70
2024/01/29 02:15:13;;;;;;;;;;;;;;;17.76;62.06;100503.03;2090570;28;20020;-68
2024/01/29 02:16:15;;;;;;;;;;;;;;;17.74;62.13;100503.16;2088681;28;19925;-70
2024/01/29 02:17:15;;;;;;;;;;;;;;;17.74;61.88;100497.81;2084927;28;19971;-69
2024/01/29 02:18:17;;;;;;;;;;;;;;;17.75;62.09;100493.31;2088761;28;19929;-69
2024/01/29 02:19:18;;;;;;;;;;;;;;;17.74;61.76;100500.50;2087242;28;20578;-69
2024/01/29 02:20:21;;;;;;;;;;;;;;;17.75;61.88;100504.03;2087257;28;20043;-70
2024/01/29 02:21:22;;;;;;;;;;;;;;;17.73;61.83;100500.66;2088084;28;20361;-69
2024/01/29 02:22:23;;;;;;;;;;;;;;;17.71;62.11;100492.75;2087398;28;19929;-69
2024/01/29 02:23:26;;;;;;;;;;;;;;;17.71;61.83;100498.13;2087342;28;19929;-68
2024/01/29 02:24:27;;;;;;;;;;;;;;;17.70;61.88;100499.13;2087974;28;20576;-69
2024/01/29 02:25:28;;;;;;;;;;;;;;;17.68;61.96;100502.94;2087480;28;20011;-68
2024/01/29 02:26:29;;;;;;;;;;;;;;;17.69;61.99;100494.75;2079458;28;19963;-68
2024/01/29 02:27:31;;;;;;;;;;;;;;;17.65;62.03;100496.88;2085506;28;19929;-69
2024/01/29 02:28:34;;;;;;;;;;;;;;;17.68;62.09;100494.91;2085172;28;22047;-69
2024/01/29 02:29:36;;;;;;;;;;;;;;;17.68;61.89;100501.09;2085983;28;19931;-70
2024/01/29 02:30:37;;;;;;;;;;;;;;;17.69;61.84;100492.06;2088650;28;23060;-69
2024/01/29 02:31:39;;;;;;;;;;;;;;;17.65;62.03;100493.34;2087319;28;20019;-69
2024/01/29 02:32:39;;;;;;;;;;;;;;;17.67;61.98;100496.75;2087816;28;19959;-69
2024/01/29 02:33:41;;;;;;;;;;;;;;;17.63;62.12;100488.16;2086981;28;19928;-69
2024/01/29 02:34:42;;;;;;;;;;;;;;;17.64;61.91;100492.53;2088884;28;19928;-69
2024/01/29 02:35:45;;;;;;;;;;;;;;;17.65;61.80;100491.50;2087398;28;19935;-69
2024/01/29 02:36:46;;;;;;;;;;;;;;;17.65;61.99;100494.19;2090037;28;19936;-68
2024/01/29 02:37:47;;;;;;;;;;;;;;;17.64;61.82;100495.22;2086639;28;19929;-69
2024/01/29 02:38:50;;;;;;;;;;;;;;;17.63;61.86;100490.84;2088192;28;19929;-68
2024/01/29 02:39:50;;;;;;;;;;;;;;;17.61;62.14;100487.47;2090047;28;19929;-69
2024/01/29 02:40:52;;;;;;;;;;;;;;;17.61;61.91;100492.00;2087637;28;20043;-69
2024/01/29 02:41:53;;;;;;;;;;;;;;;17.61;62.11;100492.81;2086993;28;19975;-69
2024/01/29 02:42:55;;;;;;;;;;;;;;;17.60;61.81;100490.28;2089788;28;19928;-70
2024/01/29 02:43:55;;;;;;;;;;;;;;;17.61;61.81;100492.81;2084284;28;19971;-69
2024/01/29 02:44:56;;;;;;;;;;;;;;;17.58;62.18;100501.19;2089540;28;19928;-69
2024/01/29 02:45:58;;;;;;;;;;;;;;;17.59;61.83;100497.50;2088802;28;20426;-68
2024/01/29 02:46:58;;;;;;;;;;;;;;;17.57;62.10;100498.63;2089853;28;19932;-69
2024/01/29 02:48:00;;;;;;;;;;;;;;;17.55;62.15;100497.94;2088215;28;20889;-69
2024/01/29 02:49:01;;;;;;;;;;;;;;;17.57;61.85;100496.78;2087819;28;20364;-69
2024/01/29 02:50:03;;;;;;;;;;;;;;;17.58;61.82;100493.13;2087713;28;19941;-68
2024/01/29 02:51:04;;;;;;;;;;;;;;;17.54;61.80;100491.72;2087292;28;19968;-70
2024/01/29 02:52:06;;;;;;;;;;;;;;;17.54;62.16;100490.91;2085501;28;20013;-68
2024/01/29 02:53:06;;;;;;;;;;;;;;;17.55;62.06;100492.56;2086157;28;20491;-69
2024/01/29 02:54:09;;;;;;;;;;;;;;;17.54;61.92;100497.09;2075917;28;19932;-69
2024/01/29 02:55:10;;;;;;;;;;;;;;;17.54;61.89;100493.56;2087562;28;19964;-68
2024/01/29 02:56:11;;;;;;;;;;;;;;;17.54;62.09;100486.38;2085531;28;19935;-69
2024/01/29 02:57:13;;;;;;;;;;;;;;;17.53;61.95;100484.69;2091118;28;19940;-69
2024/01/29 02:58:14;;;;;;;;;;;;;;;17.53;62.08;100490.06;2088022;28;19928;-69
2024/01/29 02:59:15;;;;;;;;;;;;;;;17.53;61.85;100490.06;2087921;28;20676;-70
2024/01/29 03:00:17;;;;;;;;;;;;;;;17.49;62.05;100490.50;2083544;28;19933;-70
2024/01/29 03:01:18;;;;;;;;;;;;;;;17.49;61.94;100485.13;2088563;28;19952;-69
2024/01/29 03:02:20;;;;;;;;;;;;;;;17.49;61.91;100483.28;2085362;28;19979;-69
2024/01/29 03:03:21;;;;;;;;;;;;;;;17.50;61.97;100485.00;2085470;28;19983;-69
2024/01/29 03:04:21;;;;;;;;;;;;;;;17.46;61.97;100483.59;2087863;28;19928;-68
2024/01/29 03:05:23;;;;;;;;;;;;;;;17.49;61.93;100487.81;2085343;28;20030;-70
2024/01/29 03:06:24;;;;;;;;;;;;;;;17.48;61.96;100481.63;2087006;28;20481;-69
2024/01/29 03:07:25;;;;;;;;;;;;;;;17.46;62.13;100483.59;2085424;28;19932;-69
2024/01/29 03:08:26;;;;;;;;;;;;;;;17.46;61.80;100477.41;2085258;28;20299;-68
2024/01/29 03:09:29;;;;;;;;;;;;;;;17.45;62.14;100475.72;2086797;28;19929;-68
2024/01/29 03:10:30;;;;;;;;;;;;;;;17.44;61.98;100482.94;2074630;28;20694;-70
2024/01/29 03:11:32;;;;;;;;;;;;;;;17.42;61.99;100475.00;2088159;28;19929;-69
2024/01/29 03:12:33;;;;;;;;;;;;;;;17.42;62.05;100484.91;2086974;28;19933;-68
2024/01/29 03:13:34;;;;;;;;;;;;;;;17.41;62.02;100481.38;2086546;28;19932;-68
2024/01/29 03:14:35;;;;;;;;;;;;;;;17.42;62.03;100476.88;2089404;28;19992;-69
2024/01/29 03:15:37;;;;;;;;;;;;;;;17.42;62.15;100472.34;2087947;28;20670;-69
2024/01/29 03:16:38;;;;;;;;;;;;;;;17.43;62.07;100473.16;2081275;28;19962;-70
2024/01/29 03:17:39;;;;;;;;;;;;;;;17.39;61.94;100472.63;2072455;28;20684;-69
2024/01/29 03:18:40;;;;;;;;;;;;;;;17.39;61.94;100469.97;2085114;28;20005;-67
2024/01/29 03:19:42;;;;;;;;;;;;;;;17.39;61.85;100467.28;2088908;28;19929;-69
2024/01/29 03:20:43;;;;;;;;;;;;;;;17.39;61.87;100471.81;2088050;28;19924;-70
2024/01/29 03:21:44;;;;;;;;;;;;;;;17.39;61.95;100469.13;2088824;28;19935;-68
2024/01/29 03:22:45;;;;;;;;;;;;;;;17.38;62.07;100465.59;2087614;28;19979;-69
2024/01/29 03:23:47;;;;;;;;;;;;;;;17.38;62.07;100470.09;2085952;28;20296;-68
2024/01/29 03:24:49;;;;;;;;;;;;;;;17.35;61.89;100465.03;2084309;28;19971;-69
2024/01/29 03:25:51;;;;;;;;;;;;;;;17.34;62.13;100466.03;2085113;28;19936;-68
2024/01/29 03:26:51;;;;;;;;;;;;;;;17.35;61.91;100467.72;2082739;28;19929;-69
2024/01/29 03:27:54;;;;;;;;;;;;;;;17.34;61.99;100464.19;2073733;28;19999;-69
2024/01/29 03:28:55;;;;;;;;;;;;;;;17.31;62.18;100467.19;2081068;28;19943;-69
2024/01/29 03:29:57;;;;;;;;;;;;;;;17.32;62.10;100465.34;2086431;28;20055;-70
2024/01/29 03:30:57;;;;;;;;;;;;;;;17.31;62.11;100460.97;2084538;28;20442;-68
2024/01/29 03:31:59;;;;;;;;;;;;;;;17.32;61.93;100471.53;2086809;28;19944;-68
2024/01/29 03:33:01;;;;;;;;;;;;;;;17.29;62.16;100465.66;2085607;28;20037;-69
2024/01/29 03:34:01;;;;;;;;;;;;;;;17.32;61.89;100470.69;2087973;28;20475;-69
2024/01/29 03:35:03;;;;;;;;;;;;;;;17.31;62.04;100469.88;2088516;28;19929;-68
2024/01/29 03:36:04;;;;;;;;;;;;;;;17.31;62.05;100469.03;2082727;28;20372;-69
2024/01/29 03:37:06;;;;;;;;;;;;;;;17.29;62.03;100471.00;2086379;28;19968;-68
2024/01/29 03:38:07;;;;;;;;;;;;;;;17.28;62.10;100472.00;2084870;28;19933;-70
2024/01/29 03:39:09;;;;;;;;;;;;;;;17.28;62.07;100472.84;2089383;28;20370;-69
2024/01/29 03:40:12;;;;;;;;;;;;;;;17.22;61.99;100469.91;2084499;28;19964;-68
2024/01/29 03:41:13;;;;;;;;;;;;;;;17.23;62.16;100472.44;2087403;28;20463;-68
2024/01/29 03:42:14;;;;;;;;;;;;;;;17.22;62.08;100472.59;2087468;28;19968;-69
2024/01/29 03:43:16;;;;;;;;;;;;;;;17.22;62.39;100470.78;2086409;28;20243;-69
2024/01/29 03:44:17;;;;;;;;;;;;;;;17.22;62.17;100465.41;2085939;28;19975;-69
2024/01/29 03:45:18;;;;;;;;;;;;;;;17.24;62.26;100465.25;2090971;28;19936;-68
2024/01/29 03:46:19;;;;;;;;;;;;;;;17.25;62.12;100465.09;2083890;28;19968;-70
2024/01/29 03:47:27;;;;;;;;;;;;;;;17.23;62.02;100472.44;2071197;28;20572;-69
2024/01/29 03:48:28;;;;;;;;;;;;;;;17.17;62.29;100468.53;2082398;28;20989;-70
2024/01/29 03:49:30;;;;;;;;;;;;;;;17.19;62.08;100466.56;2084416;28;20197;-69
2024/01/29 03:50:30;;;;;;;;;;;;;;;17.17;62.35;100463.16;2083914;28;19928;-69
2024/01/29 03:51:32;;;;;;;;;;;;;;;17.16;62.32;100471.34;2086642;28;20335;-68
2024/01/29 03:52:33;;;;;;;;;;;;;;;17.16;62.21;100465.97;2087457;28;19939;-67
2024/01/29 03:53:35;;;;;;;;;;;;;;;17.16;62.18;100472.22;2084526;28;19924;-69
2024/01/29 03:54:36;;;;;;;;;;;;;;;17.17;62.17;100465.00;2087751;28;19954;-68
2024/01/29 03:55:39;;;;;;;;;;;;;;;17.13;62.28;100467.16;2083011;28;19925;-69
2024/01/29 03:56:39;;;;;;;;;;;;;;;17.12;62.32;100462.78;2086733;28;19940;-68
2024/01/29 03:57:41;;;;;;;;;;;;;;;17.12;62.25;100464.59;2086416;28;19935;-69
2024/01/29 03:58:42;;;;;;;;;;;;;;;17.12;62.35;100465.44;2087202;28;19928;-69
2024/01/29 03:59:43;;;;;;;;;;;;;;;17.12;62.32;100462.78;2089083;28;19928;-68
2024/01/29 04:00:44;;;;;;;;;;;;;;;17.11;62.36;100469.13;2084987;28;19929;-69
2024/01/29 04:01:45;;;;;;;;;;;;;;;17.11;62.24;100469.13;2086368;28;19956;-68
2024/01/29 04:02:49;;;;;;;;;;;;;;;17.12;62.22;100465.44;2085100;28;19929;-68
2024/01/29 04:03:50;;;;;;;;;;;;;;;17.12;62.18;100465.44;2085838;28;19924;-69
2024/01/29 04:04:52;;;;;;;;;;;;;;;17.07;62.37;100472.25;2078097;28;19968;-69
2024/01/29 04:05:52;;;;;;;;;;;;;;;17.10;62.29;100474.63;2084838;28;19960;-69
2024/01/29 04:06:54;;;;;;;;;;;;;;;17.08;62.42;100469.44;2086883;28;19928;-68
2024/01/29 04:07:55;;;;;;;;;;;;;;;17.08;62.22;100457.88;2087577;28;20861;-69
2024/01/29 04:08:55;;;;;;;;;;;;;;;17.02;62.36;100466.50;2088158;28;19924;-68
2024/01/29 04:09:57;;;;;;;;;;;;;;;17.01;62.62;100470.19;2087022;28;19971;-68
2024/01/29 04:10:59;;;;;;;;;;;;;;;17.01;62.48;100468.34;2089708;28;20090;-68
2024/01/29 04:12:01;;;;;;;;;;;;;;;17.04;62.50;100462.66;2088019;28;20441;-69
2024/01/29 04:13:02;;;;;;;;;;;;;;;17.07;62.39;100456.16;2088668;28;20326;-68
2024/01/29 04:14:04;;;;;;;;;;;;;;;17.11;62.15;100455.72;2086356;28;19939;-68
2024/01/29 04:15:05;;;;;;;;;;;;;;;17.16;62.12;100460.63;2088293;28;19994;-68
2024/01/29 04:16:09;;;;;;;;;;;;;;;17.21;61.95;100463.69;2087332;28;19995;-69
2024/01/29 04:17:12;;;;;;;;;;;;;;;17.27;61.88;100457.72;2088681;28;19960;-69
2024/01/29 04:18:13;;;;;;;;;;;;;;;17.31;61.82;100459.13;2084967;28;19929;-68
2024/01/29 04:19:14;;;;;;;;;;;;;;;17.33;61.76;100456.31;2087462;28;19964;-69
2024/01/29 04:20:15;;;;;;;;;;;;;;;17.33;61.89;100454.47;2088323;28;19971;-69
2024/01/29 04:21:18;;;;;;;;;;;;;;;17.37;61.69;100460.38;2087604;28;19928;-68
2024/01/29 04:22:18;;;;;;;;;;;;;;;17.36;61.77;100448.81;2084412;28;19936;-69
2024/01/29 04:23:20;;;;;;;;;;;;;;;17.39;61.80;100450.34;2082167;28;19933;-69
2024/01/29 04:24:21;;;;;;;;;;;;;;;17.43;61.75;100451.72;2088389;28;19938;-70
2024/01/29 04:25:23;;;;;;;;;;;;;;;17.47;61.87;100446.88;2089396;28;19924;-69
2024/01/29 04:26:25;;;;;;;;;;;;;;;17.48;61.85;100446.75;2089338;28;19928;-69
2024/01/29 04:27:27;;;;;;;;;;;;;;;17.50;61.66;100447.44;2089387;28;19947;-69
2024/01/29 04:28:27;;;;;;;;;;;;;;;17.53;61.67;100446.28;2077054;28;19982;-69
2024/01/29 04:29:29;;;;;;;;;;;;;;;17.55;61.70;100450.50;2087484;28;20372;-68
2024/01/29 04:30:30;;;;;;;;;;;;;;;17.55;61.63;100446.97;2086156;28;20583;-69
2024/01/29 04:31:31;;;;;;;;;;;;;;;17.58;61.77;100442.16;2088852;28;19940;-69
2024/01/29 04:32:32;;;;;;;;;;;;;;;17.61;61.50;100449.06;2091421;28;20156;-69
2024/01/29 04:33:33;;;;;;;;;;;;;;;17.62;61.46;100445.38;2087957;28;19933;-69
2024/01/29 04:34:35;;;;;;;;;;;;;;;17.63;61.73;100447.91;2087910;28;20318;-68
2024/01/29 04:35:36;;;;;;;;;;;;;;;17.65;61.76;100451.25;2088985;28;19936;-69
2024/01/29 04:36:38;;;;;;;;;;;;;;;17.68;61.57;100452.78;2086536;28;19925;-68
2024/01/29 04:37:40;;;;;;;;;;;;;;;17.70;61.50;100456.19;2087858;28;19986;-69
2024/01/29 04:38:43;;;;;;;;;;;;;;;17.72;61.76;100450.63;2089301;28;20250;-68
2024/01/29 04:39:44;;;;;;;;;;;;;;;17.74;61.52;100451.34;2085775;28;20438;-68
2024/01/29 04:40:45;;;;;;;;;;;;;;;17.77;61.63;100453.72;2085958;28;19929;-69
2024/01/29 04:41:48;;;;;;;;;;;;;;;17.76;61.56;100447.50;2088956;28;20560;-69
2024/01/29 04:42:49;;;;;;;;;;;;;;;17.80;61.50;100454.31;2088139;28;20633;-68
2024/01/29 04:43:51;;;;;;;;;;;;;;;17.81;61.52;100447.94;2089793;28;19928;-70
2024/01/29 04:44:51;;;;;;;;;;;;;;;17.83;61.55;100445.09;2086897;28;19968;-69
2024/01/29 04:45:53;;;;;;;;;;;;;;;17.83;61.59;100451.31;2080142;28;19932;-69
2024/01/29 04:46:54;;;;;;;;;;;;;;;17.84;61.63;100449.47;2087654;28;20700;-69
2024/01/29 04:47:56;;;;;;;;;;;;;;;17.87;61.45;100449.16;2089270;28;19932;-68
2024/01/29 04:48:56;;;;;;;;;;;;;;;17.89;61.58;100451.69;2089816;28;20427;-68
2024/01/29 04:49:57;;;;;;;;;;;;;;;17.90;61.51;100448.00;2089648;28;19932;-69
2024/01/29 04:50:59;;;;;;;;;;;;;;;17.92;61.53;100444.16;2088054;28;20711;-69
2024/01/29 04:52:00;;;;;;;;;;;;;;;17.94;61.38;100444.84;2089781;28;20513;-68
2024/01/29 04:53:01;;;;;;;;;;;;;;;17.95;61.35;100454.59;2087794;28;19929;-68
2024/01/29 04:54:03;;;;;;;;;;;;;;;17.97;61.35;100441.88;2085896;28;19931;-69
2024/01/29 04:55:04;;;;;;;;;;;;;;;17.98;61.22;100446.22;2088820;28;20670;-70
2024/01/29 04:56:06;;;;;;;;;;;;;;;18.00;61.18;100444.22;2090036;28;19932;-67
2024/01/29 04:57:08;;;;;;;;;;;;;;;18.01;61.25;100439.69;2088716;28;19936;-69
2024/01/29 04:58:10;;;;;;;;;;;;;;;18.03;61.43;100443.91;2089688;28;19951;-68
2024/01/29 04:59:11;;;;;;;;;;;;;;;18.05;61.25;100446.44;2089413;28;20394;-69
2024/01/29 05:00:13;;;;;;;;;;;;;;;18.06;61.43;100443.59;2086274;28;19932;-69
2024/01/29 05:01:14;;;;;;;;;;;;;;;18.09;61.36;100445.13;2088599;28;19968;-70
2024/01/29 05:02:16;;;;;;;;;;;;;;;18.12;61.15;100446.66;2090139;28;20391;-70
2024/01/29 05:03:17;;;;;;;;;;;;;;;18.12;61.35;100442.13;2089117;28;20004;-69
2024/01/29 05:04:19;;;;;;;;;;;;;;;18.15;61.21;100454.41;2086344;28;19949;-69
2024/01/29 05:05:19;;;;;;;;;;;;;;;18.14;61.49;100450.88;2089450;28;19978;-69
2024/01/29 05:06:21;;;;;;;;;;;;;;;18.17;61.15;100449.72;2088139;28;20173;-68
2024/01/29 05:07:22;;;;;;;;;;;;;;;18.19;61.11;100450.41;2089990;28;19943;-68
2024/01/29 05:08:23;;;;;;;;;;;;;;;18.20;61.06;100460.16;2088360;28;20432;-69
2024/01/29 05:09:25;;;;;;;;;;;;;;;18.20;60.84;100460.16;2089493;28;19971;-70
2024/01/29 05:10:26;;;;;;;;;;;;;;;18.20;61.08;100457.47;2068915;28;20382;-69
2024/01/29 05:11:29;;;;;;;;;;;;;;;18.21;61.08;100460.00;2083837;28;19935;-70
2024/01/29 05:12:31;;;;;;;;;;;;;;;18.22;61.39;100458.13;2087071;28;19932;-69
2024/01/29 05:13:34;;;;;;;;;;;;;;;18.23;61.29;100459.84;2090973;28;19989;-69
2024/01/29 05:14:35;;;;;;;;;;;;;;;18.22;61.25;100452.75;2089857;28;21528;-69
2024/01/29 05:15:36;;;;;;;;;;;;;;;18.23;61.28;100459.84;2088595;28;20019;-68